Time;durP1;ratioP1;P1;durP2;ratioP2;P2;SDS_P1;SDS_P2;PMS_P1;PMS_P2;Temp;Humidity;BMP_temperature;BMP_pressure;BME280_temperature;BME280_humidity;BME280_pressure;Samples;Min_cycle;Max_cycle;Signal;HPM_P1;HPM_P2
2021/12/26 00:00:31;;;;;;;5.87;2.13;;;;;;;-12.45;91.59;100839.69;4968481;28;20791;-82
2021/12/26 00:02:59;;;;;;;4.63;2.37;;;;;;;-12.53;92.68;100834.91;4954603;28;20298;-81
2021/12/26 00:05:27;;;;;;;6.27;2.93;;;;;;;-12.51;92.99;100835.94;4936660;28;20647;-81
2021/12/26 00:07:54;;;;;;;6.07;3.43;;;;;;;-12.66;93.46;100831.38;4937659;28;20302;-82
2021/12/26 00:10:22;;;;;;;5.47;2.43;;;;;;;-12.70;94.10;100821.72;4936186;28;20306;-83
2021/12/26 00:12:49;;;;;;;4.67;2.60;;;;;;;-12.75;94.24;100823.06;4937151;28;20294;-82
2021/12/26 00:15:18;;;;;;;7.00;3.33;;;;;;;-12.76;94.20;100827.28;4951679;28;20294;-82
2021/12/26 00:17:45;;;;;;;5.77;2.87;;;;;;;-12.76;94.37;100826.38;4923897;28;20407;-84
2021/12/26 00:20:15;;;;;;;4.43;2.43;;;;;;;-12.75;94.27;100823.06;4938622;28;20326;-83
2021/12/26 00:22:42;;;;;;;4.87;2.50;;;;;;;-12.79;93.13;100817.72;4953164;28;20699;-83
2021/12/26 00:25:11;;;;;;;5.27;2.17;;;;;;;-12.79;91.98;100817.72;4962561;28;20349;-84
2021/12/26 00:27:38;;;;;;;4.57;2.27;;;;;;;-12.82;91.34;100817.53;4914767;29;20295;-84
2021/12/26 00:30:08;;;;;;;4.17;2.37;;;;;;;-12.83;90.72;100820.84;4957224;28;20566;-81
2021/12/26 00:32:35;;;;;;;3.90;2.37;;;;;;;-12.97;91.38;100818.03;4967450;28;20290;-82
2021/12/26 00:35:03;;;;;;;4.53;2.63;;;;;;;-13.03;91.92;100815.94;4955659;28;20286;-84
2021/12/26 00:37:30;;;;;;;4.83;2.63;;;;;;;-13.06;92.93;100821.66;4919516;28;20331;-82
2021/12/26 00:39:57;;;;;;;5.03;2.10;;;;;;;-13.03;93.23;100815.94;4951953;28;20361;-83
2021/12/26 00:42:23;;;;;;;5.27;2.70;;;;;;;-13.00;93.92;100822.91;4955567;28;20294;-83
2021/12/26 00:44:50;;;;;;;4.10;2.23;;;;;;;-13.02;93.73;100817.69;4924254;28;20305;-81
2021/12/26 00:47:17;;;;;;;6.23;2.80;;;;;;;-12.99;92.62;100820.47;4949558;28;20807;-80
2021/12/26 00:49:43;;;;;;;5.07;2.00;;;;;;;-13.04;91.56;100824.31;4955774;28;20301;-82
2021/12/26 00:52:10;;;;;;;7.27;2.40;;;;;;;-13.13;91.38;100824.50;4954824;28;20803;-81
2021/12/26 00:54:37;;;;;;;3.83;1.90;;;;;;;-13.17;91.74;100832.69;4972302;28;20690;-81
2021/12/26 00:57:04;;;;;;;2.77;1.90;;;;;;;-13.13;92.12;100833.78;4946271;28;20713;-82
2021/12/26 00:59:32;;;;;;;5.83;2.00;;;;;;;-13.21;92.11;100837.44;4953653;28;20301;-82
2021/12/26 01:01:59;;;;;;;3.53;2.27;;;;;;;-13.13;92.40;100832.13;4938463;28;20696;-83
2021/12/26 01:04:26;;;;;;;5.00;2.20;;;;;;;-13.15;91.70;100828.59;4931843;28;20632;-83
2021/12/26 01:06:53;;;;;;;3.53;1.83;;;;;;;-13.12;91.06;100835.53;4948629;28;21162;-82
2021/12/26 01:09:25;;;;;;;3.07;2.17;;;;;;;-13.10;90.03;100834.91;4963009;28;20298;-80
2021/12/26 01:11:55;;;;;;;3.70;2.27;;;;;;;-13.11;89.89;100835.69;4928508;28;20898;-81
2021/12/26 01:14:27;;;;;;;5.20;2.20;;;;;;;-13.19;90.44;100838.47;4962168;28;20304;-81
2021/12/26 01:17:03;;;;;;;4.57;2.30;;;;;;;-13.23;91.25;100844.06;4969391;28;20365;-82
2021/12/26 01:19:40;;;;;;;4.23;1.93;;;;;;;-13.28;90.99;100842.81;4943145;28;20335;-82
2021/12/26 01:22:07;;;;;;;6.10;2.10;;;;;;;-13.33;91.64;100850.09;4969281;28;20290;-82
2021/12/26 01:24:33;;;;;;;2.97;1.87;;;;;;;-13.34;92.24;100844.91;4946005;28;20298;-82
2021/12/26 01:27:01;;;;;;;3.13;1.70;;;;;;;-13.34;92.21;100850.00;4952056;28;20290;-81
2021/12/26 01:29:27;;;;;;;5.33;1.90;;;;;;;-13.34;91.84;100847.44;4938591;28;20791;-81
2021/12/26 01:31:54;;;;;;;2.63;1.67;;;;;;;-13.34;90.38;100852.53;4989630;28;20846;-82
2021/12/26 01:34:21;;;;;;;3.53;2.00;;;;;;;-13.31;89.44;100851.09;4940892;28;20422;-81
2021/12/26 01:36:48;;;;;;;4.33;2.13;;;;;;;-13.34;88.27;100850.88;4948037;28;20301;-81
2021/12/26 01:39:15;;;;;;;3.93;2.23;;;;;;;-13.47;89.21;100853.22;4924029;28;20302;-81
2021/12/26 01:41:44;;;;;;;3.90;2.00;;;;;;;-13.53;90.11;100847.69;4957710;28;20305;-81
2021/12/26 01:44:12;;;;;;;4.07;2.00;;;;;;;-13.55;90.45;100857.72;4951722;28;20298;-81
2021/12/26 01:46:40;;;;;;;4.60;2.00;;;;;;;-13.54;90.96;100864.56;4956584;28;20293;-82
2021/12/26 01:49:16;;;;;;;4.33;1.70;;;;;;;-13.56;91.04;100848.31;4956269;28;20303;-82
2021/12/26 01:51:45;;;;;;;3.43;2.00;;;;;;;-13.60;91.30;100847.97;4941594;28;20707;-80
2021/12/26 01:54:16;;;;;;;4.17;2.10;;;;;;;-13.61;90.93;100836.94;4930588;28;20290;-81
2021/12/26 01:56:43;;;;;;;4.10;1.90;;;;;;;-13.60;90.67;100840.34;4933841;28;20290;-81
2021/12/26 01:59:11;;;;;;;3.00;1.77;;;;;;;-13.65;90.40;100845.94;4939966;28;20330;-81
2021/12/26 02:01:38;;;;;;;3.67;2.00;;;;;;;-13.62;89.84;100837.66;4945490;29;20299;-82
2021/12/26 02:04:05;;;;;;;3.50;1.97;;;;;;;-13.54;89.02;100839.16;4955670;28;20321;-80
2021/12/26 02:06:32;;;;;;;4.30;1.83;;;;;;;-13.59;87.92;100842.13;4955849;28;20703;-81
2021/12/26 02:08:59;;;;;;;4.30;2.17;;;;;;;-13.70;88.57;100839.66;4965218;28;20313;-81
2021/12/26 02:11:26;;;;;;;3.50;2.17;;;;;;;-13.61;88.32;100834.38;4941594;28;20353;-81
2021/12/26 02:13:55;;;;;;;2.53;1.80;;;;;;;-13.70;88.35;100843.84;4934351;28;20317;-80
2021/12/26 02:16:23;;;;;;;4.33;1.90;;;;;;;-13.79;89.30;100841.44;4972111;28;20294;-82
2021/12/26 02:18:50;;;;;;;4.90;2.03;;;;;;;-13.84;90.29;100842.75;4958351;28;20331;-81
2021/12/26 02:21:38;;;;;;;2.87;1.80;;;;;;;-13.87;90.82;100837.44;4925102;28;20301;-82
2021/12/26 02:24:16;;;;;;;2.47;1.50;;;;;;;-13.83;91.19;100839.44;4956939;28;20354;-82
2021/12/26 02:29:28;;;;;;;3.63;2.10;;;;;;;-13.72;88.36;100838.63;4980692;28;20628;-82
2021/12/26 02:31:55;;;;;;;2.67;1.73;;;;;;;-13.73;88.49;100830.88;4949960;28;20357;-81
2021/12/26 02:34:22;;;;;;;3.93;2.30;;;;;;;-13.81;88.76;100840.44;4951354;28;20316;-81
2021/12/26 02:36:48;;;;;;;5.97;2.53;;;;;;;-13.78;87.72;100847.44;4964996;28;20786;-81
2021/12/26 02:39:15;;;;;;;3.70;2.40;;;;;;;-13.77;88.46;100846.66;4950403;28;20306;-81
2021/12/26 02:41:43;;;;;;;4.90;2.37;;;;;;;-13.78;89.27;100843.22;4962758;28;20290;-80
2021/12/26 02:44:09;;;;;;;7.53;2.30;;;;;;;-13.81;88.47;100842.97;4912217;28;20372;-80
2021/12/26 02:46:37;;;;;;;5.07;2.40;;;;;;;-13.92;89.15;100846.34;4940876;28;20294;-80
2021/12/26 02:49:04;;;;;;;3.90;1.90;;;;;;;-13.98;88.61;100844.19;4936860;28;20345;-81
2021/12/26 02:51:30;;;;;;;5.63;2.23;;;;;;;-14.12;89.37;100849.84;4958039;28;20810;-80
2021/12/26 02:53:59;;;;;;;4.83;2.03;;;;;;;-14.12;90.04;100849.84;4989292;23;20313;-95
2021/12/26 02:56:28;;;;;;;3.07;2.07;;;;;;;-14.09;89.98;100856.81;4983285;28;20292;-94
2021/12/26 02:59:08;;;;;;;;;;;;;;;;;;;;;
2021/12/26 03:01:36;;;;;;;3.67;2.13;;;;;;;-14.06;87.61;100808.81;4994173;28;20313;-94
2021/12/26 03:04:04;;;;;;;5.63;2.23;;;;;;;-14.11;87.21;100810.13;4981912;28;20365;-93
2021/12/26 03:07:01;;;;;;;3.20;2.20;;;;;;;-14.15;87.50;100808.09;4973364;28;20308;-94
2021/12/26 03:09:35;;;;;;;4.37;1.97;;;;;;;-14.04;87.67;100809.81;4982580;28;20281;-95
2021/12/26 03:12:01;;;;;;;3.70;1.40;;;;;;;-13.98;87.84;100815.38;4971901;28;20290;-94
2021/12/26 03:14:31;;;;;;;5.37;2.40;;;;;;;-13.98;87.83;100812.84;4994515;28;20033;-94
2021/12/26 03:17:01;;;;;;;5.07;3.07;;;;;;;-14.07;88.90;100810.47;4991857;28;20377;-94
2021/12/26 03:19:36;;;;;;;3.13;2.13;;;;;;;-14.13;88.41;100811.63;4961135;28;20357;-95
2021/12/26 03:22:04;;;;;;;3.90;2.23;;;;;;;-14.18;88.80;100808.72;4977937;28;20350;-94
2021/12/26 03:24:32;;;;;;;3.57;1.93;;;;;;;-14.36;89.84;100807.28;4962747;28;20285;-95
2021/12/26 03:27:04;;;;;;;4.90;2.30;;;;;;;-14.42;90.60;100812.72;4969525;28;20278;-95
2021/12/26 03:29:33;;;;;;;5.43;2.27;;;;;;;-14.42;90.60;100814.38;4980460;28;20293;-95
2021/12/26 03:32:03;;;;;;;7.93;2.83;;;;;;;-14.45;91.00;100817.59;4968774;28;20285;-95
2021/12/26 03:34:30;;;;;;;5.13;2.13;;;;;;;-14.42;91.09;100816.91;4952925;28;20282;-95
2021/12/26 03:36:57;;;;;;;4.20;2.60;;;;;;;-14.46;90.03;100820.88;4997920;28;20356;-94
2021/12/26 03:39:26;;;;;;;4.00;2.20;;;;;;;-14.48;89.86;100808.84;4967272;28;20338;-94
2021/12/26 03:41:53;;;;;;;3.50;2.40;;;;;;;-14.48;90.03;100814.81;4981159;28;20352;-96
2021/12/26 03:44:22;;;;;;;4.07;2.07;;;;;;;-14.48;90.25;100817.34;4968315;28;20281;-95
2021/12/26 03:46:49;;;;;;;4.50;2.37;;;;;;;-14.43;90.69;100812.63;4966936;28;20352;-95
2021/12/26 03:49:16;;;;;;;4.00;2.13;;;;;;;-14.32;87.59;100814.34;4981369;28;20274;-93
2021/12/26 03:51:45;;;;;;;3.40;2.20;;;;;;;-14.35;86.51;100811.59;4982509;28;20282;-94
2021/12/26 03:54:13;;;;;;;5.87;2.53;;;;;;;-14.39;86.70;100812.97;4994638;28;20280;-94
2021/12/26 03:56:41;;;;;;;4.97;2.23;;;;;;;-14.37;86.67;100808.94;4970877;28;20285;-94
2021/12/26 03:59:10;;;;;;;3.43;2.00;;;;;;;-14.31;87.23;100801.78;4972787;28;20285;-94
2021/12/26 04:01:42;;;;;;;6.00;2.43;;;;;;;-14.53;87.60;100808.50;4990154;28;20282;-95
2021/12/26 04:04:09;;;;;;;4.10;2.73;;;;;;;-14.64;88.85;100811.78;4997453;28;20333;-94
2021/12/26 04:06:38;;;;;;;5.13;2.40;;;;;;;-14.67;89.88;100812.44;4967602;28;20292;-94
2021/12/26 04:09:08;;;;;;;5.07;2.07;;;;;;;-14.60;90.45;100813.81;4962974;28;20312;-95
2021/12/26 04:11:41;;;;;;;3.10;2.47;;;;;;;-14.59;89.37;100813.94;4964882;28;20424;-95
2021/12/26 04:14:08;;;;;;;2.80;1.83;;;;;;;-14.64;88.81;100822.81;4995941;28;20287;-95
2021/12/26 04:16:35;;;;;;;3.13;1.77;;;;;;;-14.68;89.19;100817.38;4966917;28;20026;-94
2021/12/26 04:19:03;;;;;;;5.83;2.67;;;;;;;-14.67;89.61;100816.63;4962504;28;20292;-94
2021/12/26 04:21:30;;;;;;;2.87;2.00;;;;;;;-14.64;89.68;100814.31;4964364;28;20345;-96
2021/12/26 04:23:57;;;;;;;6.57;2.57;;;;;;;-14.65;89.29;100818.50;4972505;28;20282;-95
2021/12/26 04:26:27;;;;;;;3.93;2.03;;;;;;;-14.67;89.85;100812.44;4959724;28;20281;-95
2021/12/26 04:28:54;;;;;;;3.53;2.60;;;;;;;-14.68;89.73;100807.25;4967274;28;20284;-95
2021/12/26 04:31:21;;;;;;;3.80;2.57;;;;;;;-14.65;90.18;100818.50;4980560;28;20281;-95
2021/12/26 04:33:49;;;;;;;5.63;2.67;;;;;;;-14.64;90.13;100810.13;4980808;28;20285;-94
2021/12/26 04:36:16;;;;;;;5.23;2.27;;;;;;;-14.64;90.62;100809.25;4976664;28;20280;-94
2021/12/26 04:38:48;;;;;;;5.77;3.53;;;;;;;-14.58;89.66;100809.75;4964031;28;20324;-95
2021/12/26 04:41:15;;;;;;;5.83;2.40;;;;;;;-14.62;89.17;100812.81;4979822;28;20281;-94
2021/12/26 04:43:45;;;;;;;7.80;3.50;;;;;;;-14.66;89.94;100816.75;4962186;28;20293;-95
2021/12/26 04:46:22;;;;;;;6.43;2.90;;;;;;;-14.65;89.74;100815.09;4998960;28;20266;-94
2021/12/26 04:48:48;;;;;;;5.80;3.10;;;;;;;-14.58;89.24;100814.81;4962481;28;20625;-95
2021/12/26 04:51:16;;;;;;;4.57;2.70;;;;;;;-14.55;87.85;100815.06;4998243;28;20305;-93
2021/12/26 04:53:43;;;;;;;5.53;3.37;;;;;;;-14.57;88.23;100812.41;4996332;28;20324;-93
2021/12/26 04:56:10;;;;;;;6.17;2.73;;;;;;;-14.61;89.16;100815.47;4970231;28;20313;-94
2021/12/26 04:58:39;;;;;;;8.63;3.70;;;;;;;-14.47;88.66;100806.44;4967579;28;20405;-94
2021/12/26 05:01:07;;;;;;;4.73;2.97;;;;;;;-14.31;87.35;100808.50;4984563;28;20300;-94
2021/12/26 05:03:34;;;;;;;5.17;2.60;;;;;;;-14.37;86.99;100808.94;4968864;28;20291;-93
2021/12/26 05:06:03;;;;;;;6.23;3.30;;;;;;;-14.59;87.95;100813.06;4986021;28;20301;-94
2021/12/26 05:08:30;;;;;;;9.07;3.23;;;;;;;-14.67;88.33;100809.91;4968241;28;20373;-94
2021/12/26 05:10:57;;;;;;;5.43;2.77;;;;;;;-14.78;88.62;100820.81;4982719;28;20281;-94
2021/12/26 05:13:24;;;;;;;2.97;2.33;;;;;;;-14.86;89.36;100816.78;4968653;28;20357;-93
2021/12/26 05:15:51;;;;;;;5.77;3.50;;;;;;;-14.88;89.62;100809.06;4986708;28;20281;-94
2021/12/26 05:18:29;;;;;;;7.37;3.60;;;;;;;-14.80;89.63;100796.97;4970161;28;20324;-93
2021/12/26 05:21:05;;;;;;;6.07;3.50;;;;;;;-14.82;89.07;100808.63;4973336;28;20324;-93
2021/12/26 05:23:37;;;;;;;6.10;2.90;;;;;;;-14.89;88.80;100807.25;4967959;28;20309;-94
2021/12/26 05:26:04;;;;;;;7.40;3.73;;;;;;;-14.83;87.81;100800.16;4979932;28;20655;-95
2021/12/26 05:28:34;;;;;;;5.90;3.67;;;;;;;-14.74;86.80;100799.13;4967460;28;20305;-94
2021/12/26 05:31:01;;;;;;;8.23;3.20;;;;;;;-14.89;87.61;100813.97;4984146;28;20285;-94
2021/12/26 05:33:28;;;;;;;7.70;3.60;;;;;;;-14.98;87.88;100813.22;4968058;28;20312;-93
2021/12/26 05:35:59;;;;;;;7.37;3.37;;;;;;;-14.91;87.93;100813.84;4962498;28;20292;-94
2021/12/26 05:38:27;;;;;;;10.10;4.00;;;;;;;-14.81;87.16;100813.84;4966588;28;20614;-95
2021/12/26 05:40:55;;;;;;;5.90;3.27;;;;;;;-14.89;87.58;100812.31;4966689;28;20301;-95
2021/12/26 05:43:24;;;;;;;6.10;3.47;;;;;;;-14.98;88.56;100810.69;4967819;28;20270;-95
2021/12/26 05:46:08;;;;;;;6.57;3.43;;;;;;;-14.99;89.13;100811.44;4972291;28;20361;-96
2021/12/26 05:48:45;;;;;;;8.00;3.73;;;;;;;-15.00;89.74;100805.50;4971379;28;20873;-96
2021/12/26 05:51:16;;;;;;;6.20;3.13;;;;;;;-14.96;90.30;100802.47;4962678;28;20304;-95
2021/12/26 05:53:44;;;;;;;5.17;3.33;;;;;;;-14.94;90.14;100803.47;4969841;28;20281;-96
2021/12/26 05:56:17;;;;;;;7.50;4.00;;;;;;;-14.94;89.09;100806.00;4967635;28;20293;-96
2021/12/26 05:58:44;;;;;;;9.30;4.53;;;;;;;-14.97;88.42;100812.44;4953705;28;20306;-95
2021/12/26 06:01:13;;;;;;;9.33;3.97;;;;;;;-14.95;87.42;100819.44;4968781;28;20289;-95
2021/12/26 06:03:40;;;;;;;7.97;4.30;;;;;;;-14.97;87.60;100822.59;4963877;28;20379;-96
2021/12/26 06:06:07;;;;;;;10.63;4.33;;;;;;;-15.02;87.29;100816.28;4968667;28;20288;-95
2021/12/26 06:08:38;;;;;;;7.03;3.47;;;;;;;-15.04;87.28;100810.19;4967732;28;20281;-96
2021/12/26 06:11:05;;;;;;;10.43;4.03;;;;;;;-15.00;86.94;100809.69;4980242;28;20349;-96
2021/12/26 06:13:34;;;;;;;7.80;2.80;;;;;;;-15.06;87.49;100816.00;4993808;28;20357;-96
2021/12/26 06:16:04;;;;;;;6.57;3.60;;;;;;;-15.07;87.43;100819.28;4984306;28;20273;-95
2021/12/26 06:18:38;;;;;;;7.40;3.60;;;;;;;-15.07;87.29;100823.47;4983443;28;20320;-96
2021/12/26 06:21:13;;;;;;;10.27;3.07;;;;;;;-15.06;87.10;100813.47;4970495;28;20269;-95
2021/12/26 06:23:52;;;;;;;6.03;3.27;;;;;;;-15.08;86.31;100809.03;4968100;28;20369;-95
2021/12/26 06:26:23;;;;;;;9.60;4.53;;;;;;;-15.22;86.92;100823.09;4968566;28;20357;-95
2021/12/26 06:28:51;;;;;;;10.53;4.43;;;;;;;-15.18;88.41;100821.72;4990482;28;20281;-95
2021/12/26 06:31:20;;;;;;;6.80;3.40;;;;;;;-15.18;87.85;100814.09;4968567;28;20277;-95
2021/12/26 06:33:48;;;;;;;6.43;3.57;;;;;;;-15.22;88.09;100823.09;4968528;28;20293;-96
2021/12/26 06:36:18;;;;;;;5.17;3.33;;;;;;;-15.23;88.87;100816.25;4984081;28;20277;-95
2021/12/26 06:38:58;;;;;;;7.67;3.07;;;;;;;-15.18;89.28;100806.50;4967761;28;20281;-95
2021/12/26 06:41:42;;;;;;;6.13;3.17;;;;;;;-15.10;88.29;100801.31;5003937;28;20277;-95
2021/12/26 06:44:23;;;;;;;6.30;3.50;;;;;;;-15.09;86.97;100813.22;4967624;28;20273;-96
2021/12/26 06:47:02;;;;;;;11.03;3.63;;;;;;;-15.11;86.14;100814.75;4987895;28;20285;-96
2021/12/26 06:49:29;;;;;;;8.47;3.13;;;;;;;-15.09;86.08;100812.34;4963487;28;20281;-95
2021/12/26 06:52:01;;;;;;;6.33;3.40;;;;;;;-15.16;86.57;100812.59;4975421;28;20297;-96
2021/12/26 06:54:29;;;;;;;6.97;3.13;;;;;;;-15.29;87.83;100805.63;4998080;28;20349;-96
2021/12/26 06:57:00;;;;;;;7.80;4.20;;;;;;;-15.25;87.68;100814.34;4985244;28;20277;-95
2021/12/26 06:59:28;;;;;;;4.83;3.23;;;;;;;-15.21;86.52;100808.81;4966835;28;20285;-95
2021/12/26 07:01:55;;;;;;;5.87;3.73;;;;;;;-15.22;86.75;100810.41;4994409;28;20285;-96
2021/12/26 07:04:28;;;;;;;6.40;3.53;;;;;;;-15.28;86.42;100814.09;4967567;28;20277;-96
2021/12/26 07:06:58;;;;;;;7.10;3.23;;;;;;;-15.37;87.28;100804.97;4967254;28;20045;-95
2021/12/26 07:09:25;;;;;;;6.07;3.17;;;;;;;-15.27;86.39;100810.81;4978978;28;20343;-95
2021/12/26 07:12:00;;;;;;;7.23;3.23;;;;;;;-15.23;86.22;100825.50;4969525;28;20277;-96
2021/12/26 07:14:32;;;;;;;6.07;3.10;;;;;;;-15.28;86.30;100819.19;4964213;28;20281;-95
2021/12/26 07:17:00;;;;;;;5.73;3.40;;;;;;;-15.42;87.43;100816.34;4964924;28;20277;-95
2021/12/26 07:19:33;;;;;;;5.55;3.10;;;;;;;-15.43;88.24;100814.59;4989744;28;20293;-96
2021/12/26 07:22:00;;;;;;;6.00;4.03;;;;;;;-15.42;89.34;100818.00;4966426;28;20056;-95
2021/12/26 07:24:29;;;;;;;4.70;3.20;;;;;;;-15.40;90.01;100819.00;4963172;28;20274;-96
2021/12/26 07:26:57;;;;;;;5.97;3.63;;;;;;;-15.36;89.90;100827.00;4969839;28;20281;-95
2021/12/26 07:29:24;;;;;;;7.43;3.83;;;;;;;-15.39;89.80;100825.84;4965853;28;20281;-96
2021/12/26 07:31:55;;;;;;;7.47;2.70;;;;;;;-15.36;89.87;100829.53;4967218;28;20437;-94
2021/12/26 07:34:21;;;;;;;7.43;3.60;;;;;;;-15.27;88.40;100826.00;4966745;28;20313;-94
2021/12/26 07:36:54;;;;;;;6.97;4.37;;;;;;;-15.33;87.93;100830.56;4971120;28;20282;-95
2021/12/26 07:39:21;;;;;;;5.40;4.07;;;;;;;-15.37;88.25;100827.78;4964405;28;20277;-95
2021/12/26 07:41:54;;;;;;;8.00;4.53;;;;;;;-15.40;88.27;100822.44;4998388;28;20285;-95
2021/12/26 07:44:24;;;;;;;7.17;4.43;;;;;;;-15.36;87.21;100827.00;4982419;28;20277;-95
2021/12/26 07:46:58;;;;;;;8.03;4.93;;;;;;;-15.42;86.83;100838.28;4998744;28;20285;-95
2021/12/26 07:49:27;;;;;;;9.20;3.73;;;;;;;-15.43;87.31;100841.56;4964996;28;20281;-94
2021/12/26 07:51:54;;;;;;;5.80;3.93;;;;;;;-15.42;87.40;100850.94;4963318;28;20277;-93
2021/12/26 07:54:23;;;;;;;8.00;4.10;;;;;;;-15.43;87.48;100846.63;4964271;28;20289;-94
2021/12/26 07:56:54;;;;;;;12.40;5.10;;;;;;;-15.38;87.61;100846.28;4965028;28;20274;-95
2021/12/26 07:59:24;;;;;;;7.60;4.97;;;;;;;-15.23;85.85;100855.91;4964096;28;20360;-94
2021/12/26 08:01:55;;;;;;;5.90;3.77;;;;;;;-15.36;85.92;100854.88;4963927;28;20278;-93
2021/12/26 08:04:22;;;;;;;12.33;5.33;;;;;;;-15.45;87.72;100853.22;4960298;28;20345;-93
2021/12/26 08:06:49;;;;;;;10.23;5.13;;;;;;;-15.33;88.39;100859.31;4964069;28;20288;-92
2021/12/26 08:09:19;;;;;;;9.63;4.93;;;;;;;-15.20;88.62;100858.72;4964928;28;20293;-91
2021/12/26 08:11:46;;;;;;;6.70;5.17;;;;;;;-15.27;89.17;100864.00;4991299;23;20311;-84
2021/12/26 08:14:13;;;;;;;10.20;6.20;;;;;;;-15.28;90.53;100859.72;4998528;28;20289;-83
2021/12/26 08:16:40;;;;;;;14.23;7.37;;;;;;;-15.24;90.16;100861.72;4989240;28;20299;-83
2021/12/26 08:19:07;;;;;;;13.77;6.70;;;;;;;-15.17;90.16;100874.16;4993775;28;20339;-84
2021/12/26 08:21:34;;;;;;;14.07;6.53;;;;;;;-15.08;88.42;100874.94;4963099;28;20292;-83
2021/12/26 08:24:02;;;;;;;10.93;5.60;;;;;;;-14.99;88.44;100877.34;4957632;28;20294;-84
2021/12/26 08:26:34;;;;;;;10.20;5.28;;;;;;;-14.79;88.65;100884.97;4967945;28;20285;-84
2021/12/26 08:29:01;;;;;;;6.20;4.40;;;;;;;-14.87;87.58;100884.34;4982175;28;20535;-84
2021/12/26 08:31:29;;;;;;;6.60;4.17;;;;;;;-15.13;90.00;100886.31;4983347;28;20284;-84
2021/12/26 08:33:55;;;;;;;7.17;3.67;;;;;;;-15.11;90.61;100879.75;4980393;28;20307;-84
2021/12/26 08:36:22;;;;;;;11.73;5.97;;;;;;;-15.03;91.73;100881.28;4979084;28;20804;-84
2021/12/26 08:38:49;;;;;;;8.60;4.97;;;;;;;-14.94;92.29;100873.56;4981413;28;20289;-84
2021/12/26 08:41:16;;;;;;;11.17;6.23;;;;;;;-14.83;92.15;100870.25;4967620;28;20299;-84
2021/12/26 08:43:43;;;;;;;14.43;7.53;;;;;;;-14.71;89.83;100875.44;4980674;28;20291;-84
2021/12/26 08:46:11;;;;;;;11.83;5.60;;;;;;;-14.68;90.41;100880.78;4965919;28;20293;-85
2021/12/26 08:48:39;;;;;;;10.07;5.10;;;;;;;-14.70;90.83;100877.25;4946416;28;20298;-85
2021/12/26 08:51:05;;;;;;;7.83;4.40;;;;;;;-14.77;91.55;100865.69;4973439;28;20359;-85
2021/12/26 08:53:32;;;;;;;9.40;4.57;;;;;;;-14.72;91.94;100874.56;4978010;28;20300;-84
2021/12/26 08:55:59;;;;;;;9.93;4.60;;;;;;;-14.44;90.97;100874.25;4983798;28;20304;-84
2021/12/26 08:58:26;;;;;;;5.97;3.43;;;;;;;-14.27;91.03;100871.44;4989878;23;20330;-80
2021/12/26 09:00:53;;;;;;;7.80;3.67;;;;;;;-14.32;92.36;100877.78;5009894;28;20292;-80
2021/12/26 09:03:19;;;;;;;6.27;3.30;;;;;;;-14.46;92.62;100871.59;4998159;28;20304;-83
2021/12/26 09:05:46;;;;;;;7.93;3.90;;;;;;;-14.48;93.66;100883.28;4980705;28;20289;-81
2021/12/26 09:08:13;;;;;;;10.63;3.77;;;;;;;-14.40;94.66;100883.88;4989370;28;20639;-82
2021/12/26 09:10:41;;;;;;;8.60;4.07;;;;;;;-14.32;94.89;100886.28;4992743;28;20305;-82
2021/12/26 09:13:09;;;;;;;6.53;3.70;;;;;;;-14.25;93.91;100882.59;4992057;28;20285;-81
2021/12/26 09:15:36;;;;;;;8.37;4.03;;;;;;;-14.24;94.80;100887.78;4965382;28;20304;-80
2021/12/26 09:18:03;;;;;;;8.03;3.60;;;;;;;-14.15;94.79;100885.09;4965822;28;20333;-80
2021/12/26 09:20:30;;;;;;;5.70;3.27;;;;;;;-14.05;94.75;100885.06;4969170;28;20296;-79
2021/12/26 09:22:57;;;;;;;6.37;3.60;;;;;;;-14.00;94.60;100888.88;5008239;28;20446;-80
2021/12/26 09:25:25;;;;;;;5.77;3.40;;;;;;;-13.97;95.59;100889.13;4977311;28;20328;-81
2021/12/26 09:27:53;;;;;;;9.37;3.60;;;;;;;-13.97;96.23;100888.22;4978957;28;20347;-80
2021/12/26 09:30:19;;;;;;;5.67;2.93;;;;;;;-13.94;97.30;100885.94;4993526;28;20284;-81
2021/12/26 09:32:46;;;;;;;5.93;3.23;;;;;;;-13.90;98.04;100887.06;4996348;28;20293;-80
2021/12/26 09:35:15;;;;;;;6.27;2.97;;;;;;;-13.81;98.45;100878.53;4979889;28;20370;-81
2021/12/26 09:37:43;;;;;;;6.50;3.27;;;;;;;-13.76;98.90;100873.81;4980090;28;20828;-81
2021/12/26 09:40:12;;;;;;;6.80;3.03;;;;;;;-13.70;99.28;100880.28;4974705;28;20292;-81
2021/12/26 09:42:39;;;;;;;8.60;3.27;;;;;;;-13.56;99.28;100877.91;4978274;28;20293;-82
2021/12/26 09:45:08;;;;;;;6.53;3.67;;;;;;;-13.47;98.69;100876.97;4962338;28;20296;-80
2021/12/26 09:47:40;;;;;;;4.63;3.13;;;;;;;-13.40;99.78;100870.72;4979861;28;20304;-80
2021/12/26 09:50:10;;;;;;;5.60;3.20;;;;;;;-13.37;100.00;100863.31;4966600;28;20299;-82
2021/12/26 09:52:41;;;;;;;7.07;4.00;;;;;;;-13.31;100.00;100865.47;4987089;28;20292;-82
2021/12/26 09:55:08;;;;;;;5.53;3.13;;;;;;;-13.22;100.00;100872.13;4994594;28;20863;-81
2021/12/26 09:57:34;;;;;;;6.27;3.67;;;;;;;-13.14;100.00;100871.03;4977512;28;20296;-81
2021/12/26 10:00:20;;;;;;;8.23;3.93;;;;;;;-13.04;100.00;100869.19;4976364;28;20293;-83
2021/12/26 10:03:07;;;;;;;4.53;3.87;;;;;;;-12.93;100.00;100868.38;4982564;28;20288;-81
2021/12/26 10:05:56;;;;;;;7.73;4.10;;;;;;;-12.79;100.00;100871.16;4974972;28;20354;-81
2021/12/26 10:08:24;;;;;;;9.30;3.60;;;;;;;-12.59;100.00;100872.66;4990805;28;20660;-82
2021/12/26 10:11:24;;;;;;;6.67;3.50;;;;;;;-12.55;100.00;100867.00;4981797;28;20681;-82
2021/12/26 10:13:54;;;;;;;18.90;10.10;;;;;;;-12.45;100.00;100858.38;4952384;28;20324;-82
2021/12/26 10:16:24;;;;;;;22.83;11.93;;;;;;;-12.40;100.00;100858.75;4987230;28;20291;-81
2021/12/26 10:18:53;;;;;;;12.17;6.63;;;;;;;-12.32;100.00;100853.44;4979113;28;20292;-81
2021/12/26 10:21:32;;;;;;;7.93;4.57;;;;;;;-12.23;100.00;100843.03;4990358;28;20619;-83
2021/12/26 10:24:11;;;;;;;11.83;5.40;;;;;;;-12.14;100.00;100853.88;4981540;28;20297;-82
2021/12/26 10:26:41;;;;;;;10.67;4.90;;;;;;;-12.02;100.00;100854.78;5005799;28;20311;-82
2021/12/26 10:29:16;;;;;;;7.23;3.37;;;;;;;-11.87;100.00;100857.53;5001336;28;20383;-81
2021/12/26 10:31:56;;;;;;;6.20;3.10;;;;;;;-11.77;100.00;100849.75;4994571;28;20300;-81
2021/12/26 10:34:36;;;;;;;12.90;5.80;;;;;;;-11.63;100.00;100858.34;4970593;28;20296;-81
2021/12/26 10:37:07;;;;;;;11.60;6.53;;;;;;;-11.52;100.00;100856.53;5010430;28;20798;-82
2021/12/26 10:39:37;;;;;;;16.33;7.53;;;;;;;-11.40;100.00;100859.97;4984907;28;20296;-83
2021/12/26 10:42:07;;;;;;;27.50;14.30;;;;;;;-11.22;100.00;100866.34;5000301;28;20303;-83
2021/12/26 10:44:41;;;;;;;23.33;13.27;;;;;;;-11.13;100.00;100866.97;4977062;28;20297;-81
2021/12/26 10:47:14;;;;;;;13.18;9.00;;;;;;;-10.97;100.00;100861.25;4966838;28;20299;-83
2021/12/26 10:49:44;;;;;;;10.60;5.90;;;;;;;-10.79;100.00;100865.03;4977016;28;20041;-82
2021/12/26 10:52:17;;;;;;;8.60;5.13;;;;;;;-10.48;100.00;100850.91;4992541;28;20414;-80
2021/12/26 10:54:52;;;;;;;8.63;5.63;;;;;;;-10.25;100.00;100861.84;4990105;28;20776;-82
2021/12/26 10:57:22;;;;;;;7.33;4.03;;;;;;;-10.03;100.00;100858.97;4991286;28;20292;-81
2021/12/26 11:00:00;;;;;;;8.40;3.83;;;;;;;-9.74;100.00;100850.59;4993857;28;20292;-80
2021/12/26 11:02:29;;;;;;;10.53;3.80;;;;;;;-9.47;100.00;100848.00;4994811;28;20303;-82
2021/12/26 11:05:04;;;;;;;5.80;3.67;;;;;;;-9.19;100.00;100848.03;4997573;28;20292;-82
2021/12/26 11:07:55;;;;;;;8.10;3.63;;;;;;;-8.96;100.00;100834.94;4978626;28;20296;-81
2021/12/26 11:10:33;;;;;;;6.10;3.30;;;;;;;-8.71;100.00;100844.09;4991124;28;20296;-81
2021/12/26 11:13:03;;;;;;;4.47;3.30;;;;;;;-8.44;100.00;100838.00;4992758;28;20297;-81
2021/12/26 11:15:32;;;;;;;5.43;3.53;;;;;;;-8.12;100.00;100832.13;5018566;28;20299;-81
2021/12/26 11:18:02;;;;;;;8.57;5.50;;;;;;;-7.81;100.00;100827.06;5002488;28;20291;-82
2021/12/26 11:20:36;;;;;;;6.80;4.13;;;;;;;-7.56;100.00;100829.28;4999946;28;20288;-82
2021/12/26 11:23:09;;;;;;;14.30;9.10;;;;;;;-7.33;98.64;100827.94;4972955;28;20303;-81
2021/12/26 11:25:57;;;;;;;7.05;5.10;;;;;;;-7.11;100.00;100822.25;4984871;28;20038;-80
2021/12/26 11:28:26;;;;;;;4.93;3.37;;;;;;;-7.00;98.90;100822.81;4983268;28;20061;-81
2021/12/26 11:30:55;;;;;;;3.73;2.43;;;;;;;-6.91;98.49;100813.00;4991888;28;20852;-82